sensor_id;sensor_type;location;lat;lon;timestamp;pressure;altitude;pressure_sealevel;temperature
11792;BMP180;5953;52.372;9.918;2024-03-23T00:55:14;100058.00;;;14.10
11792;BMP180;5953;52.372;9.918;2024-03-23T00:57:41;100054.00;;;13.90
11792;BMP180;5953;52.372;9.918;2024-03-23T01:00:07;100051.00;;;14.00
11792;BMP180;5953;52.372;9.918;2024-03-23T01:02:35;100059.00;;;14.00
11792;BMP180;5953;52.372;9.918;2024-03-23T01:05:02;100053.00;;;14.00
11792;BMP180;5953;52.372;9.918;2024-03-23T01:07:28;100048.00;;;14.00
11792;BMP180;5953;52.372;9.918;2024-03-23T01:09:54;100041.00;;;14.00
11792;BMP180;5953;52.372;9.918;2024-03-23T01:12:22;100049.00;;;14.00
11792;BMP180;5953;52.372;9.918;2024-03-23T01:14:48;100048.00;;;13.90
11792;BMP180;5953;52.372;9.918;2024-03-23T01:17:14;100034.00;;;13.90
11792;BMP180;5953;52.372;9.918;2024-03-23T01:19:41;100024.00;;;13.90
11792;BMP180;5953;52.372;9.918;2024-03-23T01:22:07;100030.00;;;13.80
11792;BMP180;5953;52.372;9.918;2024-03-23T01:24:35;100029.00;;;13.70
11792;BMP180;5953;52.372;9.918;2024-03-23T01:27:01;100016.00;;;13.70
11792;BMP180;5953;52.372;9.918;2024-03-23T01:29:29;100022.00;;;13.70
11792;BMP180;5953;52.372;9.918;2024-03-23T01:31:55;100017.00;;;13.70
11792;BMP180;5953;52.372;9.918;2024-03-23T01:34:21;100007.00;;;13.50
11792;BMP180;5953;52.372;9.918;2024-03-23T01:36:47;100008.00;;;13.50
11792;BMP180;5953;52.372;9.918;2024-03-23T01:39:14;100006.00;;;13.40
11792;BMP180;5953;52.372;9.918;2024-03-23T01:41:40;100000.00;;;13.40
11792;BMP180;5953;52.372;9.918;2024-03-23T01:44:08;100002.00;;;13.40
11792;BMP180;5953;52.372;9.918;2024-03-23T01:46:35;99998.00;;;13.40
11792;BMP180;5953;52.372;9.918;2024-03-23T01:49:03;99994.00;;;13.40
11792;BMP180;5953;52.372;9.918;2024-03-23T01:51:29;99996.00;;;13.40
11792;BMP180;5953;52.372;9.918;2024-03-23T01:53:56;99994.00;;;13.40
11792;BMP180;5953;52.372;9.918;2024-03-23T01:56:22;99989.00;;;13.30
11792;BMP180;5953;52.372;9.918;2024-03-23T01:58:49;99985.00;;;13.20
11792;BMP180;5953;52.372;9.918;2024-03-23T02:01:15;99991.00;;;13.40
11792;BMP180;5953;52.372;9.918;2024-03-23T02:03:43;99977.00;;;13.40
11792;BMP180;5953;52.372;9.918;2024-03-23T02:06:09;99980.00;;;13.40
11792;BMP180;5953;52.372;9.918;2024-03-23T02:08:36;99991.00;;;13.30
11792;BMP180;5953;52.372;9.918;2024-03-23T02:11:02;99985.00;;;13.30
11792;BMP180;5953;52.372;9.918;2024-03-23T02:13:28;99980.00;;;13.10
11792;BMP180;5953;52.372;9.918;2024-03-23T02:15:54;99980.00;;;13.00
11792;BMP180;5953;52.372;9.918;2024-03-23T02:18:21;99973.00;;;13.00
11792;BMP180;5953;52.372;9.918;2024-03-23T02:20:48;99976.00;;;13.10
11792;BMP180;5953;52.372;9.918;2024-03-23T02:23:16;99967.00;;;13.10
11792;BMP180;5953;52.372;9.918;2024-03-23T02:25:43;99964.00;;;13.20
11792;BMP180;5953;52.372;9.918;2024-03-23T02:28:10;99961.00;;;13.30
11792;BMP180;5953;52.372;9.918;2024-03-23T02:30:36;99951.00;;;13.30
11792;BMP180;5953;52.372;9.918;2024-03-23T02:33:03;99949.00;;;13.30
11792;BMP180;5953;52.372;9.918;2024-03-23T02:35:29;99942.00;;;13.30
11792;BMP180;5953;52.372;9.918;2024-03-23T02:37:55;99946.00;;;13.30
11792;BMP180;5953;52.372;9.918;2024-03-23T02:40:24;99942.00;;;13.20
11792;BMP180;5953;52.372;9.918;2024-03-23T02:42:51;99934.00;;;13.30
11792;BMP180;5953;52.372;9.918;2024-03-23T02:45:16;99941.00;;;13.20
11792;BMP180;5953;52.372;9.918;2024-03-23T02:47:43;99936.00;;;13.10
11792;BMP180;5953;52.372;9.918;2024-03-23T02:50:09;99942.00;;;12.90
11792;BMP180;5953;52.372;9.918;2024-03-23T02:52:36;99937.00;;;13.00
11792;BMP180;5953;52.372;9.918;2024-03-23T02:55:02;99926.00;;;13.00
11792;BMP180;5953;52.372;9.918;2024-03-23T02:57:30;99914.00;;;12.90
11792;BMP180;5953;52.372;9.918;2024-03-23T02:59:56;99921.00;;;12.70
11792;BMP180;5953;52.372;9.918;2024-03-23T03:02:23;99926.00;;;12.90
11792;BMP180;5953;52.372;9.918;2024-03-23T03:04:48;99912.00;;;12.80
11792;BMP180;5953;52.372;9.918;2024-03-23T03:07:15;99914.00;;;12.90
11792;BMP180;5953;52.372;9.918;2024-03-23T03:09:41;99913.00;;;12.60
11792;BMP180;5953;52.372;9.918;2024-03-23T03:12:08;99916.00;;;12.90
11792;BMP180;5953;52.372;9.918;2024-03-23T03:14:35;99909.00;;;12.90
11792;BMP180;5953;52.372;9.918;2024-03-23T03:17:01;99903.00;;;12.90
11792;BMP180;5953;52.372;9.918;2024-03-23T03:19:27;99912.00;;;12.80
11792;BMP180;5953;52.372;9.918;2024-03-23T03:21:54;99896.00;;;12.80
11792;BMP180;5953;52.372;9.918;2024-03-23T03:24:19;99904.00;;;12.80
11792;BMP180;5953;52.372;9.918;2024-03-23T03:26:46;99903.00;;;12.80
11792;BMP180;5953;52.372;9.918;2024-03-23T03:29:12;99893.00;;;12.80
11792;BMP180;5953;52.372;9.918;2024-03-23T03:31:40;99886.00;;;12.80
11792;BMP180;5953;52.372;9.918;2024-03-23T03:34:05;99894.00;;;12.60
11792;BMP180;5953;52.372;9.918;2024-03-23T03:36:32;99895.00;;;12.60
11792;BMP180;5953;52.372;9.918;2024-03-23T03:38:58;99893.00;;;12.70
11792;BMP180;5953;52.372;9.918;2024-03-23T03:41:25;99902.00;;;12.60
11792;BMP180;5953;52.372;9.918;2024-03-23T03:43:50;99904.00;;;12.50
11792;BMP180;5953;52.372;9.918;2024-03-23T03:46:17;99896.00;;;12.50
11792;BMP180;5953;52.372;9.918;2024-03-23T03:48:44;99902.00;;;12.60
11792;BMP180;5953;52.372;9.918;2024-03-23T03:51:13;99896.00;;;12.50
11792;BMP180;5953;52.372;9.918;2024-03-23T03:53:38;99904.00;;;12.60
11792;BMP180;5953;52.372;9.918;2024-03-23T03:56:05;99897.00;;;12.60
11792;BMP180;5953;52.372;9.918;2024-03-23T03:58:32;99896.00;;;12.60
11792;BMP180;5953;52.372;9.918;2024-03-23T04:00:58;99898.00;;;12.60
11792;BMP180;5953;52.372;9.918;2024-03-23T04:03:25;99883.00;;;12.60
11792;BMP180;5953;52.372;9.918;2024-03-23T04:05:53;99890.00;;;12.60
11792;BMP180;5953;52.372;9.918;2024-03-23T04:08:19;99893.00;;;12.80
11792;BMP180;5953;52.372;9.918;2024-03-23T04:10:45;99892.00;;;12.90
11792;BMP180;5953;52.372;9.918;2024-03-23T04:13:12;99891.00;;;12.90
11792;BMP180;5953;52.372;9.918;2024-03-23T04:15:38;99877.00;;;12.70
11792;BMP180;5953;52.372;9.918;2024-03-23T04:18:05;99879.00;;;13.00
11792;BMP180;5953;52.372;9.918;2024-03-23T04:20:30;99883.00;;;13.10
11792;BMP180;5953;52.372;9.918;2024-03-23T04:22:59;99879.00;;;13.20
11792;BMP180;5953;52.372;9.918;2024-03-23T04:25:25;99877.00;;;13.10
11792;BMP180;5953;52.372;9.918;2024-03-23T04:27:52;99876.00;;;12.90
11792;BMP180;5953;52.372;9.918;2024-03-23T04:30:18;99876.00;;;13.00
11792;BMP180;5953;52.372;9.918;2024-03-23T04:32:44;99879.00;;;13.20
11792;BMP180;5953;52.372;9.918;2024-03-23T04:35:10;99871.00;;;13.20
11792;BMP180;5953;52.372;9.918;2024-03-23T04:37:38;99861.00;;;13.30
11792;BMP180;5953;52.372;9.918;2024-03-23T04:40:08;99865.00;;;13.30
11792;BMP180;5953;52.372;9.918;2024-03-23T04:42:36;99862.00;;;13.10
11792;BMP180;5953;52.372;9.918;2024-03-23T04:45:04;99864.00;;;13.00
11792;BMP180;5953;52.372;9.918;2024-03-23T04:47:31;99850.00;;;13.00
11792;BMP180;5953;52.372;9.918;2024-03-23T04:49:58;99852.00;;;13.00
11792;BMP180;5953;52.372;9.918;2024-03-23T04:52:25;99849.00;;;13.00
11792;BMP180;5953;52.372;9.918;2024-03-23T04:54:51;99843.00;;;13.00
11792;BMP180;5953;52.372;9.918;2024-03-23T04:57:19;99834.00;;;13.00
11792;BMP180;5953;52.372;9.918;2024-03-23T04:59:45;99833.00;;;13.00
11792;BMP180;5953;52.372;9.918;2024-03-23T05:02:12;99839.00;;;13.00
11792;BMP180;5953;52.372;9.918;2024-03-23T05:04:38;99845.00;;;13.00
11792;BMP180;5953;52.372;9.918;2024-03-23T05:07:06;99834.00;;;13.10
11792;BMP180;5953;52.372;9.918;2024-03-23T05:09:31;99832.00;;;13.20
11792;BMP180;5953;52.372;9.918;2024-03-23T05:11:58;99826.00;;;13.20
11792;BMP180;5953;52.372;9.918;2024-03-23T05:14:27;99835.00;;;13.20
11792;BMP180;5953;52.372;9.918;2024-03-23T05:16:53;99843.00;;;13.20
11792;BMP180;5953;52.372;9.918;2024-03-23T05:19:19;99842.00;;;13.20
11792;BMP180;5953;52.372;9.918;2024-03-23T05:21:46;99845.00;;;13.10
11792;BMP180;5953;52.372;9.918;2024-03-23T05:24:12;99841.00;;;12.80
11792;BMP180;5953;52.372;9.918;2024-03-23T05:26:38;99837.00;;;12.90
11792;BMP180;5953;52.372;9.918;2024-03-23T05:29:04;99843.00;;;12.50
11792;BMP180;5953;52.372;9.918;2024-03-23T05:31:33;99834.00;;;12.50
11792;BMP180;5953;52.372;9.918;2024-03-23T05:33:59;99836.00;;;12.60
11792;BMP180;5953;52.372;9.918;2024-03-23T05:36:26;99834.00;;;12.50
11792;BMP180;5953;52.372;9.918;2024-03-23T05:38:51;99838.00;;;12.50
11792;BMP180;5953;52.372;9.918;2024-03-23T05:41:18;99833.00;;;12.30
11792;BMP180;5953;52.372;9.918;2024-03-23T05:43:44;99830.00;;;12.40
11792;BMP180;5953;52.372;9.918;2024-03-23T05:46:11;99851.00;;;12.50
11792;BMP180;5953;52.372;9.918;2024-03-23T05:48:38;99830.00;;;12.20
11792;BMP180;5953;52.372;9.918;2024-03-23T05:51:04;99836.00;;;12.30
11792;BMP180;5953;52.372;9.918;2024-03-23T05:53:31;99830.00;;;12.30
11792;BMP180;5953;52.372;9.918;2024-03-23T05:56:01;99824.00;;;12.40
11792;BMP180;5953;52.372;9.918;2024-03-23T05:58:29;99829.00;;;12.10
11792;BMP180;5953;52.372;9.918;2024-03-23T06:01:00;99828.00;;;12.30
11792;BMP180;5953;52.372;9.918;2024-03-23T06:03:26;99824.00;;;12.30
11792;BMP180;5953;52.372;9.918;2024-03-23T06:05:55;99806.00;;;12.30
11792;BMP180;5953;52.372;9.918;2024-03-23T06:08:21;99796.00;;;12.20
11792;BMP180;5953;52.372;9.918;2024-03-23T06:10:49;99813.00;;;12.10
11792;BMP180;5953;52.372;9.918;2024-03-23T06:13:16;99817.00;;;12.20
11792;BMP180;5953;52.372;9.918;2024-03-23T06:15:43;99798.00;;;12.20
11792;BMP180;5953;52.372;9.918;2024-03-23T06:18:09;99796.00;;;12.30
11792;BMP180;5953;52.372;9.918;2024-03-23T06:20:35;99798.00;;;12.10
11792;BMP180;5953;52.372;9.918;2024-03-23T06:23:03;99804.00;;;12.10
11792;BMP180;5953;52.372;9.918;2024-03-23T06:25:29;99808.00;;;12.00
11792;BMP180;5953;52.372;9.918;2024-03-23T06:27:56;99810.00;;;11.90
11792;BMP180;5953;52.372;9.918;2024-03-23T06:30:24;99809.00;;;12.00
11792;BMP180;5953;52.372;9.918;2024-03-23T06:32:50;99801.00;;;12.00
11792;BMP180;5953;52.372;9.918;2024-03-23T06:35:16;99793.00;;;11.90
11792;BMP180;5953;52.372;9.918;2024-03-23T06:37:42;99805.00;;;11.90
11792;BMP180;5953;52.372;9.918;2024-03-23T06:40:10;99817.00;;;11.90
11792;BMP180;5953;52.372;9.918;2024-03-23T06:42:36;99822.00;;;11.90
11792;BMP180;5953;52.372;9.918;2024-03-23T06:45:04;99790.00;;;11.90
11792;BMP180;5953;52.372;9.918;2024-03-23T06:47:30;99799.00;;;11.80
11792;BMP180;5953;52.372;9.918;2024-03-23T06:49:57;99809.00;;;11.80
11792;BMP180;5953;52.372;9.918;2024-03-23T06:52:23;99822.00;;;11.60
11792;BMP180;5953;52.372;9.918;2024-03-23T06:54:49;99824.00;;;11.60
11792;BMP180;5953;52.372;9.918;2024-03-23T06:57:17;99822.00;;;11.70
11792;BMP180;5953;52.372;9.918;2024-03-23T06:59:43;99817.00;;;11.50
11792;BMP180;5953;52.372;9.918;2024-03-23T07:02:09;99821.00;;;11.60
11792;BMP180;5953;52.372;9.918;2024-03-23T07:04:35;99805.00;;;11.40
11792;BMP180;5953;52.372;9.918;2024-03-23T07:07:02;99817.00;;;11.50
11792;BMP180;5953;52.372;9.918;2024-03-23T07:09:28;99820.00;;;11.30
11792;BMP180;5953;52.372;9.918;2024-03-23T07:11:54;99826.00;;;11.50
11792;BMP180;5953;52.372;9.918;2024-03-23T07:14:24;99825.00;;;11.30
11792;BMP180;5953;52.372;9.918;2024-03-23T07:16:51;99822.00;;;11.30
11792;BMP180;5953;52.372;9.918;2024-03-23T07:19:17;99817.00;;;11.40
11792;BMP180;5953;52.372;9.918;2024-03-23T07:21:44;99820.00;;;11.30
11792;BMP180;5953;52.372;9.918;2024-03-23T07:24:10;99812.00;;;11.20
11792;BMP180;5953;52.372;9.918;2024-03-23T07:26:37;99820.00;;;11.30
11792;BMP180;5953;52.372;9.918;2024-03-23T07:29:03;99822.00;;;11.30
11792;BMP180;5953;52.372;9.918;2024-03-23T07:31:31;99827.00;;;11.40
11792;BMP180;5953;52.372;9.918;2024-03-23T07:33:57;99832.00;;;11.40
11792;BMP180;5953;52.372;9.918;2024-03-23T07:36:23;99832.00;;;11.40
11792;BMP180;5953;52.372;9.918;2024-03-23T07:38:50;99831.00;;;11.30
11792;BMP180;5953;52.372;9.918;2024-03-23T07:41:17;99829.00;;;11.40
11792;BMP180;5953;52.372;9.918;2024-03-23T07:43:44;99813.00;;;11.50
11792;BMP180;5953;52.372;9.918;2024-03-23T07:46:11;99823.00;;;11.50
11792;BMP180;5953;52.372;9.918;2024-03-23T07:48:39;99807.00;;;11.50
11792;BMP180;5953;52.372;9.918;2024-03-23T07:51:08;99806.00;;;11.80
11792;BMP180;5953;52.372;9.918;2024-03-23T07:53:36;99820.00;;;11.70
11792;BMP180;5953;52.372;9.918;2024-03-23T07:56:05;99819.00;;;11.70
11792;BMP180;5953;52.372;9.918;2024-03-23T07:58:32;99819.00;;;11.80
11792;BMP180;5953;52.372;9.918;2024-03-23T08:01:04;99808.00;;;11.80
11792;BMP180;5953;52.372;9.918;2024-03-23T08:03:30;99818.00;;;12.00
11792;BMP180;5953;52.372;9.918;2024-03-23T08:06:08;99811.00;;;11.70
11792;BMP180;5953;52.372;9.918;2024-03-23T08:08:34;99818.00;;;11.70
11792;BMP180;5953;52.372;9.918;2024-03-23T08:11:01;99828.00;;;11.60
11792;BMP180;5953;52.372;9.918;2024-03-23T08:13:27;99826.00;;;11.70
11792;BMP180;5953;52.372;9.918;2024-03-23T08:15:56;99813.00;;;11.80
11792;BMP180;5953;52.372;9.918;2024-03-23T08:18:22;99809.00;;;11.80
11792;BMP180;5953;52.372;9.918;2024-03-23T08:20:55;99818.00;;;12.10
11792;BMP180;5953;52.372;9.918;2024-03-23T08:23:23;99801.00;;;12.20
11792;BMP180;5953;52.372;9.918;2024-03-23T08:25:50;99807.00;;;12.30
11792;BMP180;5953;52.372;9.918;2024-03-23T08:28:16;99809.00;;;12.20
11792;BMP180;5953;52.372;9.918;2024-03-23T08:30:43;99808.00;;;12.40
11792;BMP180;5953;52.372;9.918;2024-03-23T08:33:09;99811.00;;;11.60
11792;BMP180;5953;52.372;9.918;2024-03-23T08:35:35;99820.00;;;12.10
11792;BMP180;5953;52.372;9.918;2024-03-23T08:38:01;99807.00;;;12.20
11792;BMP180;5953;52.372;9.918;2024-03-23T08:40:29;99821.00;;;12.30
11792;BMP180;5953;52.372;9.918;2024-03-23T08:42:55;99813.00;;;12.50
11792;BMP180;5953;52.372;9.918;2024-03-23T08:45:21;99813.00;;;12.40
11792;BMP180;5953;52.372;9.918;2024-03-23T08:47:47;99827.00;;;12.60
11792;BMP180;5953;52.372;9.918;2024-03-23T08:50:14;99821.00;;;12.70
11792;BMP180;5953;52.372;9.918;2024-03-23T08:52:40;99809.00;;;12.70
11792;BMP180;5953;52.372;9.918;2024-03-23T08:55:07;99822.00;;;12.80
11792;BMP180;5953;52.372;9.918;2024-03-23T08:57:34;99819.00;;;13.10
11792;BMP180;5953;52.372;9.918;2024-03-23T09:00:02;99821.00;;;12.40
11792;BMP180;5953;52.372;9.918;2024-03-23T09:02:27;99821.00;;;13.00
11792;BMP180;5953;52.372;9.918;2024-03-23T09:04:54;99826.00;;;13.20
11792;BMP180;5953;52.372;9.918;2024-03-23T09:07:20;99820.00;;;13.20
11792;BMP180;5953;52.372;9.918;2024-03-23T09:09:46;99826.00;;;13.20
11792;BMP180;5953;52.372;9.918;2024-03-23T09:12:12;99810.00;;;13.30
11792;BMP180;5953;52.372;9.918;2024-03-23T09:14:40;99821.00;;;13.20
11792;BMP180;5953;52.372;9.918;2024-03-23T09:17:06;99828.00;;;13.40
11792;BMP180;5953;52.372;9.918;2024-03-23T09:19:33;99812.00;;;13.30
11792;BMP180;5953;52.372;9.918;2024-03-23T09:21:59;99826.00;;;12.60
11792;BMP180;5953;52.372;9.918;2024-03-23T09:24:26;99823.00;;;12.80
11792;BMP180;5953;52.372;9.918;2024-03-23T09:26:52;99827.00;;;13.10
11792;BMP180;5953;52.372;9.918;2024-03-23T09:29:18;99836.00;;;13.00
11792;BMP180;5953;52.372;9.918;2024-03-23T09:31:46;99821.00;;;12.70
11792;BMP180;5953;52.372;9.918;2024-03-23T09:34:12;99824.00;;;13.00
11792;BMP180;5953;52.372;9.918;2024-03-23T09:36:38;99817.00;;;12.70
11792;BMP180;5953;52.372;9.918;2024-03-23T09:39:06;99813.00;;;13.20
11792;BMP180;5953;52.372;9.918;2024-03-23T09:41:32;99803.00;;;13.60
11792;BMP180;5953;52.372;9.918;2024-03-23T09:43:58;99811.00;;;13.60
11792;BMP180;5953;52.372;9.918;2024-03-23T09:46:24;99811.00;;;13.50
11792;BMP180;5953;52.372;9.918;2024-03-23T09:48:56;99834.00;;;13.90
11792;BMP180;5953;52.372;9.918;2024-03-23T09:51:22;99824.00;;;13.80
11792;BMP180;5953;52.372;9.918;2024-03-23T09:53:50;99831.00;;;13.60
11792;BMP180;5953;52.372;9.918;2024-03-23T09:56:17;99834.00;;;13.90
